createdAt,value
2023-04-03T00:00:02.685Z,94802.41
2023-04-03T00:02:33.939Z,94789.19
2023-04-03T00:05:02.558Z,94806.13
2023-04-03T00:07:32.076Z,94795.00
2023-04-03T00:10:00.143Z,94790.47
2023-04-03T00:12:27.927Z,94806.91
2023-04-03T00:15:00.194Z,94803.50
2023-04-03T00:17:31.354Z,94803.50
2023-04-03T00:20:05.136Z,94800.31
2023-04-03T00:22:32.859Z,94801.63
2023-04-03T00:25:00.901Z,94791.56
2023-04-03T00:27:28.699Z,94806.94
2023-04-03T00:29:56.588Z,94805.88
2023-04-03T00:32:24.696Z,94811.69
2023-04-03T00:34:52.860Z,94787.84
2023-04-03T00:37:21.835Z,94796.59
2023-04-03T00:39:49.693Z,94810.09
2023-04-03T00:42:18.343Z,94803.72
2023-04-03T00:45:00.789Z,94797.91
2023-04-03T00:47:38.381Z,94810.88
2023-04-03T00:50:13.192Z,94795.53
2023-04-03T00:52:40.772Z,94790.75
2023-04-03T00:55:10.193Z,94798.69
2023-04-03T00:57:39.042Z,94795.53
2023-04-03T01:00:11.075Z,94784.69
2023-04-03T01:02:42.069Z,94802.41
2023-04-03T01:05:12.124Z,94797.34
2023-04-03T01:07:40.383Z,94802.94
2023-04-03T01:10:11.194Z,94800.28
2023-04-03T01:12:46.499Z,94798.44
2023-04-03T01:15:41.196Z,94780.44
2023-04-03T01:18:14.689Z,94797.13
2023-04-03T01:21:38.546Z,94796.31
2023-04-03T01:24:14.169Z,94806.41
2023-04-03T01:26:52.039Z,94808.22
2023-04-03T01:29:25.378Z,94796.03
2023-04-03T01:31:56.761Z,94797.91
2023-04-03T01:34:32.239Z,94809.28
2023-04-03T01:37:00.574Z,94808.75
2023-04-03T01:39:28.656Z,94816.69
2023-04-03T01:42:15.135Z,94815.34
2023-04-03T01:44:46.888Z,94821.19
2023-04-03T01:53:25.418Z,94810.59
2023-04-03T01:56:05.892Z,94814.31
2023-04-03T01:58:44.226Z,94806.09
2023-04-03T02:01:30.259Z,94811.41
2023-04-03T02:03:58.044Z,94803.97
2023-04-03T02:06:26.871Z,94808.19
2023-04-03T02:08:55.231Z,94802.41
2023-04-03T02:11:23.207Z,94789.16
2023-04-03T02:13:51.154Z,94816.16
2023-04-03T02:16:19.157Z,94807.94
2023-04-03T02:18:56.131Z,94803.97
2023-04-03T02:21:28.219Z,94789.66
2023-04-03T02:27:07.641Z,94806.63
2023-04-03T02:32:48.152Z,94809.25
2023-04-03T02:35:21.987Z,94805.25
2023-04-03T02:37:51.553Z,94801.84
2023-04-03T02:40:24.189Z,94809.78
2023-04-03T02:45:54.201Z,94803.41
2023-04-03T02:48:27.302Z,94805.78
2023-04-03T02:50:56.640Z,94810.53
2023-04-03T02:53:48.850Z,94812.94
2023-04-03T02:56:38.814Z,94810.28
2023-04-03T02:59:11.199Z,94811.34
2023-04-03T03:01:54.013Z,94809.47
2023-04-03T03:05:02.574Z,94817.69
2023-04-03T03:08:30.251Z,94820.34
2023-04-03T03:11:39.295Z,94816.63
2023-04-03T03:14:13.514Z,94817.69
2023-04-03T03:17:06.402Z,94811.59
2023-04-03T03:19:48.671Z,94809.22
2023-04-03T03:22:54.327Z,94814.75
2023-04-03T03:25:30.295Z,94815.31
2023-04-03T03:28:30.722Z,94810.25
2023-04-03T03:31:03.937Z,94811.34
2023-04-03T03:33:37.003Z,94803.16
2023-04-03T03:36:14.741Z,94805.53
2023-04-03T03:38:50.567Z,94797.34
2023-04-03T03:41:19.832Z,94804.47
2023-04-03T03:43:53.280Z,94796.53
2023-04-03T03:46:21.441Z,94807.09
2023-04-03T03:48:57.277Z,94803.66
2023-04-03T03:51:59.940Z,94805.00
2023-04-03T03:54:49.970Z,94801.28
2023-04-03T03:57:22.122Z,94801.84
2023-04-03T03:59:53.106Z,94799.19
2023-04-03T04:02:21.626Z,94806.31
2023-04-03T04:08:23.442Z,94805.53
2023-04-03T04:14:00.645Z,94799.16
2023-04-03T04:16:30.874Z,94803.63
2023-04-03T04:19:06.725Z,94797.53
2023-04-03T04:21:52.143Z,94810.00
2023-04-03T04:24:28.640Z,94808.63
2023-04-03T04:27:17.879Z,94809.97
2023-04-03T04:30:04.254Z,94801.78
2023-04-03T04:32:50.872Z,94795.94
2023-04-03T04:38:29.835Z,94801.72
2023-04-03T04:41:34.094Z,94804.16
2023-04-03T04:44:44.950Z,94797.53
2023-04-03T04:47:23.096Z,94785.09
2023-04-03T04:50:20.889Z,94794.09
2023-04-03T04:53:44.943Z,94795.44
2023-04-03T04:56:06.189Z,94797.81
2023-04-03T04:58:36.282Z,94799.63
2023-04-03T05:01:34.567Z,94812.84
2023-04-03T05:04:21.249Z,94808.91
2023-04-03T05:06:54.729Z,94804.13
2023-04-03T05:09:44.142Z,94803.03
2023-04-03T05:12:14.650Z,94810.69
2023-04-03T05:14:51.205Z,94808.88
2023-04-03T05:17:58.173Z,94808.03
2023-04-03T05:20:46.310Z,94815.41
2023-04-03T05:24:29.071Z,94820.69
2023-04-03T05:30:33.309Z,94824.91
2023-04-03T05:33:21.659Z,94823.38
2023-04-03T05:36:15.768Z,94827.31
2023-04-03T05:44:37.222Z,94820.38
2023-04-03T05:47:09.059Z,94813.78
2023-04-03T05:49:37.145Z,94814.31
2023-04-03T05:52:05.316Z,94811.44
2023-04-03T05:54:37.887Z,94819.06
2023-04-03T05:57:54.575Z,94819.06
2023-04-03T06:01:17.352Z,94828.63
2023-04-03T06:03:56.547Z,94831.78
2023-04-03T06:06:43.911Z,94830.25
2023-04-03T06:09:15.081Z,94838.69
2023-04-03T06:14:44.405Z,94833.69
2023-04-03T06:17:20.072Z,94841.38
2023-04-03T06:20:14.967Z,94838.81
2023-04-03T06:22:52.623Z,94835.66
2023-04-03T06:29:51.958Z,94846.75
2023-04-03T06:32:53.282Z,94836.44
2023-04-03T06:35:22.651Z,94852.56
2023-04-03T06:37:51.591Z,94842.56
2023-04-03T06:40:28.255Z,94857.91
2023-04-03T06:43:22.445Z,94855.81
2023-04-03T06:46:20.788Z,94861.88
2023-04-03T06:49:01.772Z,94860.06
2023-04-03T06:51:33.306Z,94849.22
2023-04-03T06:54:20.488Z,94854.25
2023-04-03T06:56:52.775Z,94856.94
2023-04-03T06:59:21.423Z,94854.28
2023-04-03T07:01:48.671Z,94856.94
2023-04-03T07:04:18.179Z,94862.50
2023-04-03T07:06:45.567Z,94858.53
2023-04-03T07:09:12.507Z,94842.69
2023-04-03T07:11:39.180Z,94853.78
2023-04-03T07:14:33.131Z,94864.91
2023-04-03T07:17:02.023Z,94876.03
2023-04-03T07:19:30.032Z,94871.25
2023-04-03T07:21:56.699Z,94871.00
2023-04-03T07:24:23.767Z,94867.03
2023-04-03T07:26:51.915Z,94873.38
2023-04-03T07:29:50.469Z,94867.81
2023-04-03T07:33:34.433Z,94879.72
2023-04-03T07:36:11.088Z,94882.34
2023-04-03T07:38:39.778Z,94875.72
2023-04-03T07:41:10.213Z,94882.88
2023-04-03T07:43:39.016Z,94885.78
2023-04-03T07:46:07.992Z,94878.06
2023-04-03T07:48:40.600Z,94881.13
2023-04-03T07:51:09.499Z,94874.13
2023-04-03T07:56:44.513Z,94888.03
2023-04-03T07:59:43.160Z,94880.72
2023-04-03T08:02:24.048Z,94885.75
2023-04-03T08:04:53.252Z,94885.50
2023-04-03T08:07:43.052Z,94893.50
2023-04-03T08:10:12.873Z,94892.09
2023-04-03T08:12:43.854Z,94889.88
2023-04-03T08:15:14.769Z,94897.22
2023-04-03T08:17:51.221Z,94894.19
2023-04-03T08:23:55.164Z,94906.13
2023-04-03T08:26:30.826Z,94907.44
2023-04-03T08:29:42.719Z,94915.72
2023-04-03T08:32:24.771Z,94915.22
2023-04-03T08:35:03.039Z,94914.38
2023-04-03T08:37:46.569Z,94918.53
2023-04-03T08:40:18.828Z,94899.06
2023-04-03T08:43:01.009Z,94916.84
2023-04-03T08:46:19.654Z,94921.25
2023-04-03T08:48:54.666Z,94905.56
2023-04-03T08:51:23.939Z,94907.97
2023-04-03T08:54:46.117Z,94921.81
2023-04-03T09:03:56.260Z,94926.41
2023-04-03T09:06:30.247Z,94922.88
2023-04-03T09:09:30.040Z,94928.50
2023-04-03T09:12:02.567Z,94931.03
2023-04-03T09:15:03.027Z,94928.13
2023-04-03T09:18:11.843Z,94927.94
2023-04-03T09:21:09.380Z,94922.97
2023-04-03T09:24:30.135Z,94925.13
2023-04-03T09:27:05.730Z,94915.03
2023-04-03T09:29:40.619Z,94914.56
2023-04-03T09:32:28.064Z,94921.22
2023-04-03T09:35:20.591Z,94928.09
2023-04-03T09:41:44.080Z,94917.69
2023-04-03T09:44:30.085Z,94922.97
2023-04-03T09:47:28.178Z,94908.66
2023-04-03T09:50:16.599Z,94924.59
2023-04-03T09:52:55.004Z,94917.16
2023-04-03T09:55:31.088Z,94913.63
2023-04-03T09:58:49.842Z,94908.97
2023-04-03T10:01:33.604Z,94923.41
2023-04-03T10:05:36.709Z,94927.56
2023-04-03T10:08:48.429Z,94920.78
2023-04-03T10:11:48.573Z,94916.94
2023-04-03T10:14:19.815Z,94923.34
2023-04-03T10:17:18.296Z,94921.28
2023-04-03T10:20:12.655Z,94918.44
2023-04-03T10:22:53.164Z,94923.53
2023-04-03T10:26:28.092Z,94923.31
2023-04-03T10:33:21.428Z,94928.91
2023-04-03T10:36:54.798Z,94916.09
2023-04-03T10:40:24.672Z,94920.06
2023-04-03T10:50:35.951Z,94919.13
2023-04-03T10:54:01.586Z,94925.50
2023-04-03T10:57:17.809Z,94921.53
2023-04-03T11:00:26.754Z,94923.44
2023-04-03T11:05:00.738Z,94917.75
2023-04-03T11:11:43.373Z,94913.06
2023-04-03T11:15:02.089Z,94914.94
2023-04-03T11:18:29.424Z,94908.59
2023-04-03T11:21:12.961Z,94917.66
2023-04-03T11:23:49.368Z,94906.63
2023-04-03T11:26:27.599Z,94900.84
2023-04-03T11:29:18.013Z,94911.19
2023-04-03T11:32:50.041Z,94904.03
2023-04-03T11:36:27.138Z,94900.25
2023-04-03T11:40:23.451Z,94904.03
2023-04-03T11:43:50.489Z,94898.66
2023-04-03T11:47:27.625Z,94899.00
2023-04-03T11:50:09.133Z,94886.22
2023-04-03T11:52:43.758Z,94898.06
2023-04-03T11:55:59.791Z,94890.41
2023-04-03T11:58:38.889Z,94895.28
2023-04-03T12:02:08.183Z,94888.41
2023-04-03T12:04:35.524Z,94887.09
2023-04-03T12:07:19.986Z,94884.94
2023-04-03T12:09:46.575Z,94876.06
2023-04-03T12:12:52.414Z,94887.13
2023-04-03T12:15:38.172Z,94880.19
2023-04-03T12:18:57.654Z,94885.47
2023-04-03T12:22:29.038Z,94883.59
2023-04-03T12:25:26.328Z,94875.38
2023-04-03T12:28:01.289Z,94867.88
2023-04-03T12:31:11.347Z,94871.44
2023-04-03T12:34:05.320Z,94871.97
2023-04-03T12:37:04.008Z,94873.66
2023-04-03T12:41:07.636Z,94868.28
2023-04-03T12:43:53.215Z,94868.94
2023-04-03T12:46:52.351Z,94865.78
2023-04-03T12:49:52.692Z,94857.53
2023-04-03T12:53:00.108Z,94853.56
2023-04-03T12:59:22.066Z,94865.75
2023-04-03T13:01:56.842Z,94861.06
2023-04-03T13:04:24.246Z,94854.97
2023-04-03T13:10:18.847Z,94854.53
2023-04-03T13:12:56.082Z,94858.88
2023-04-03T13:15:47.534Z,94857.81
2023-04-03T13:18:53.402Z,94855.16
2023-04-03T13:21:30.238Z,94849.06
2023-04-03T13:24:14.599Z,94839.47
2023-04-03T13:26:43.168Z,94845.53
2023-04-03T13:29:32.185Z,94842.63
2023-04-03T13:32:01.184Z,94842.41
2023-04-03T13:34:36.690Z,94844.78
2023-04-03T13:37:05.431Z,94843.25
2023-04-03T13:39:38.038Z,94838.41
2023-04-03T13:42:23.974Z,94839.41
2023-04-03T13:45:25.081Z,94843.72
2023-04-03T13:47:55.783Z,94842.94
2023-04-03T13:50:26.617Z,94846.81
2023-04-03T13:52:55.632Z,94838.28
2023-04-03T13:55:58.567Z,94844.63
2023-04-03T13:58:31.256Z,94840.41
2023-04-03T14:01:11.177Z,94841.59
2023-04-03T14:03:43.570Z,94841.59
2023-04-03T14:06:16.423Z,94840.06
2023-04-03T14:08:44.019Z,94840.06
2023-04-03T14:11:18.684Z,94846.91
2023-04-03T14:13:47.542Z,94838.38
2023-04-03T14:16:17.940Z,94847.06
2023-04-03T14:18:49.048Z,94835.59
2023-04-03T14:21:17.812Z,94837.91
2023-04-03T14:23:45.169Z,94831.75
2023-04-03T14:26:15.021Z,94832.78
2023-04-03T14:28:43.971Z,94820.59
2023-04-03T14:31:20.258Z,94831.47
2023-04-03T14:34:03.331Z,94834.56
2023-04-03T14:36:42.588Z,94825.53
2023-04-03T14:39:20.021Z,94832.50
2023-04-03T14:41:52.798Z,94832.97
2023-04-03T14:44:21.240Z,94828.94
2023-04-03T14:49:30.573Z,94835.56
2023-04-03T14:51:59.522Z,94825.75
2023-04-03T14:54:29.280Z,94813.50
2023-04-03T14:56:59.946Z,94818.53
2023-04-03T14:59:29.724Z,94816.63
2023-04-03T15:01:57.932Z,94816.44
2023-04-03T15:04:45.215Z,94804.31
2023-04-03T15:07:31.131Z,94805.09
2023-04-03T15:10:17.067Z,94807.09
2023-04-03T15:12:51.160Z,94804.38
2023-04-03T15:15:21.917Z,94803.09
2023-04-03T15:18:36.977Z,94810.56
2023-04-03T15:21:08.402Z,94806.63
2023-04-03T15:23:36.910Z,94805.66
2023-04-03T15:26:06.479Z,94804.53
2023-04-03T15:28:38.193Z,94806.16
2023-04-03T15:31:09.987Z,94821.47
2023-04-03T15:33:39.007Z,94821.22
2023-04-03T15:36:17.175Z,94823.44
2023-04-03T15:38:46.376Z,94825.31
2023-04-03T15:41:17.983Z,94814.03
2023-04-03T15:43:54.118Z,94823.09
2023-04-03T15:46:56.000Z,94817.63
2023-04-03T15:49:47.187Z,94827.63
2023-04-03T15:52:17.413Z,94815.16
2023-04-03T15:54:44.518Z,94812.66
2023-04-03T15:57:11.221Z,94809.28
2023-04-03T15:59:37.948Z,94803.34
2023-04-03T16:02:07.587Z,94807.31
2023-04-03T16:04:35.153Z,94808.59
2023-04-03T16:07:03.545Z,94815.13
2023-04-03T16:09:31.595Z,94828.59
2023-04-03T16:11:58.265Z,94818.31
2023-04-03T16:14:24.973Z,94815.50
2023-04-03T16:16:51.650Z,94822.44
2023-04-03T16:19:18.492Z,94827.28
2023-04-03T16:21:45.327Z,94831.31
2023-04-03T16:24:12.122Z,94829.44
2023-04-03T16:26:38.789Z,94831.03
2023-04-03T16:29:05.443Z,94829.19
2023-04-03T16:31:33.711Z,94835.28
2023-04-03T16:34:01.667Z,94829.19
2023-04-03T16:36:28.425Z,94825.25
2023-04-03T16:38:55.131Z,94827.84
2023-04-03T16:41:21.816Z,94827.03
2023-04-03T16:43:48.630Z,94822.78
2023-04-03T16:46:15.625Z,94823.75
2023-04-03T16:48:42.330Z,94817.09
2023-04-03T16:51:08.983Z,94819.25
2023-04-03T16:53:36.792Z,94824.03
2023-04-03T16:56:03.437Z,94822.50
2023-04-03T16:58:30.136Z,94819.09
2023-04-03T17:00:56.909Z,94821.50
2023-04-03T17:03:26.746Z,94825.75
2023-04-03T17:05:53.562Z,94829.69
2023-04-03T17:08:20.328Z,94826.78
2023-04-03T17:10:47.933Z,94827.84
2023-04-03T17:13:15.664Z,94830.53
2023-04-03T17:15:42.679Z,94826.84
2023-04-03T17:18:09.588Z,94825.59
2023-04-03T17:20:38.765Z,94824.78
2023-04-03T17:23:06.078Z,94829.31
2023-04-03T17:25:32.824Z,94829.06
2023-04-03T17:27:59.499Z,94829.59
2023-04-03T17:30:26.155Z,94826.66
2023-04-03T17:32:52.821Z,94835.44
2023-04-03T17:35:19.566Z,94826.97
2023-04-03T17:37:49.895Z,94827.81
2023-04-03T17:40:18.742Z,94833.44
2023-04-03T17:42:45.656Z,94833.22
2023-04-03T17:45:12.424Z,94836.16
2023-04-03T17:47:39.260Z,94833.56
2023-04-03T17:50:06.836Z,94829.06
2023-04-03T17:52:33.889Z,94834.13
2023-04-03T17:55:00.540Z,94835.47
2023-04-03T17:57:27.220Z,94825.66
2023-04-03T17:59:54.265Z,94836.25
2023-04-03T18:02:21.191Z,94842.84
2023-04-03T18:04:47.872Z,94840.47
2023-04-03T18:07:14.553Z,94839.44
2023-04-03T18:09:42.108Z,94841.03
2023-04-03T18:12:09.856Z,94835.47
2023-04-03T18:14:38.302Z,94840.25
2023-04-03T18:17:05.067Z,94847.66
2023-04-03T18:19:32.461Z,94846.59
2023-04-03T18:22:03.329Z,94851.38
2023-04-03T18:24:33.906Z,94847.66
2023-04-03T18:27:06.252Z,94849.56
2023-04-03T18:29:34.003Z,94853.53
2023-04-03T18:32:04.363Z,94855.38
2023-04-03T18:34:31.933Z,94852.72
2023-04-03T18:36:58.590Z,94849.28
2023-04-03T18:39:27.020Z,94854.59
2023-04-03T18:41:54.745Z,94848.22
2023-04-03T18:44:24.195Z,94845.03
2023-04-03T18:46:53.883Z,94846.63
2023-04-03T18:49:21.083Z,94848.50
2023-04-03T18:51:47.922Z,94842.66
2023-04-03T18:54:14.668Z,94850.06
2023-04-03T18:56:41.308Z,94845.56
2023-04-03T18:59:08.047Z,94853.53
2023-04-03T19:01:35.182Z,94847.94
2023-04-03T19:04:02.426Z,94844.50
2023-04-03T19:06:29.280Z,94850.38
2023-04-03T19:08:56.365Z,94858.56
2023-04-03T19:11:23.182Z,94855.91
2023-04-03T19:16:20.070Z,94863.31
2023-04-03T19:18:46.789Z,94855.13
2023-04-03T19:21:14.878Z,94859.63
2023-04-03T19:23:44.694Z,94853.00
2023-04-03T19:26:13.710Z,94858.03
2023-04-03T19:28:41.767Z,94860.66
2023-04-03T19:31:20.976Z,94860.66
2023-04-03T19:33:48.374Z,94863.31
2023-04-03T19:36:16.088Z,94862.53
2023-04-03T19:38:42.973Z,94863.59
2023-04-03T19:41:17.403Z,94868.59
2023-04-03T19:43:44.803Z,94859.59
2023-04-03T19:46:11.988Z,94860.94
2023-04-03T19:48:38.732Z,94854.56
2023-04-03T19:51:06.230Z,94864.66
2023-04-03T19:53:33.073Z,94863.06
2023-04-03T19:56:00.921Z,94865.44
2023-04-03T19:58:29.889Z,94869.66
2023-04-03T20:00:57.785Z,94875.50
2023-04-03T20:03:26.236Z,94867.03
2023-04-03T20:05:54.192Z,94876.00
2023-04-03T20:08:21.075Z,94879.19
2023-04-03T20:10:47.799Z,94878.94
2023-04-03T20:13:14.790Z,94881.31
2023-04-03T20:15:43.691Z,94878.09
2023-04-03T20:18:17.758Z,94876.81
2023-04-03T20:20:55.401Z,94877.09
2023-04-03T20:23:23.247Z,94872.56
2023-04-03T20:26:05.988Z,94873.88
2023-04-03T20:28:38.017Z,94870.69
2023-04-03T20:31:05.175Z,94883.91
2023-04-03T20:33:33.458Z,94878.09
2023-04-03T20:36:02.037Z,94879.13
2023-04-03T20:38:28.893Z,94890.50
2023-04-03T20:40:55.817Z,94883.84
2023-04-03T20:43:23.373Z,94884.91
2023-04-03T20:45:50.952Z,94889.66
2023-04-03T20:48:18.668Z,94886.97
2023-04-03T20:50:46.475Z,94880.34
2023-04-03T20:53:15.182Z,94883.50
2023-04-03T20:55:42.520Z,94888.00
2023-04-03T20:58:09.569Z,94881.66
2023-04-03T21:00:38.010Z,94888.53
2023-04-03T21:03:06.206Z,94890.66
2023-04-03T21:05:34.850Z,94887.47
2023-04-03T21:08:40.315Z,94882.69
2023-04-03T21:11:44.805Z,94871.53
2023-04-03T21:14:49.544Z,94880.28
2023-04-03T21:17:16.464Z,94881.56
2023-04-03T21:19:46.535Z,94884.19
2023-04-03T21:22:13.974Z,94868.06
2023-04-03T21:24:41.231Z,94872.03
2023-04-03T21:27:08.419Z,94875.22
2023-04-03T21:29:35.030Z,94879.47
2023-04-03T21:32:02.225Z,94874.09
2023-04-03T21:34:31.083Z,94882.50
2023-04-03T21:37:02.921Z,94878.50
2023-04-03T21:39:30.281Z,94891.66
2023-04-03T21:41:57.167Z,94884.50
2023-04-03T21:44:24.310Z,94886.88
2023-04-03T21:46:54.650Z,94885.03
2023-04-03T21:49:22.549Z,94889.22
2023-04-03T21:51:51.513Z,94885.22
2023-04-03T21:54:35.596Z,94887.88
2023-04-03T21:57:34.314Z,94875.72
2023-04-03T22:00:50.832Z,94882.56
2023-04-03T22:07:30.060Z,94889.47
2023-04-03T22:10:01.181Z,94890.47
2023-04-03T22:13:00.757Z,94883.63
2023-04-03T22:15:56.605Z,94896.53
2023-04-03T22:18:53.930Z,94895.09
2023-04-03T22:31:11.751Z,94895.69
2023-04-03T22:33:43.742Z,94897.75
2023-04-03T22:36:49.023Z,94894.44
2023-04-03T22:39:25.741Z,94890.16
2023-04-03T22:41:56.402Z,94875.28
2023-04-03T22:44:34.992Z,94886.78
2023-04-03T22:47:09.586Z,94886.34
2023-04-03T22:49:40.746Z,94893.06
2023-04-03T22:52:14.117Z,94891.91
2023-04-03T22:54:53.463Z,94888.22
2023-04-03T22:57:26.259Z,94884.78
2023-04-03T22:59:57.063Z,94895.59
2023-04-03T23:06:58.163Z,94896.53
2023-04-03T23:09:41.462Z,94889.59
2023-04-03T23:13:27.060Z,94888.25
2023-04-03T23:16:20.924Z,94890.25
2023-04-03T23:19:28.806Z,94886.03
2023-04-03T23:22:09.968Z,94888.31
2023-04-03T23:32:05.772Z,94890.09
2023-04-03T23:35:03.979Z,94887.69
2023-04-03T23:37:43.860Z,94880.59
2023-04-03T23:40:20.867Z,94884.81
2023-04-03T23:42:57.238Z,94886.59
2023-04-03T23:45:53.536Z,94886.25
2023-04-03T23:48:28.000Z,94876.53
2023-04-03T23:51:32.359Z,94878.56
2023-04-03T23:54:14.151Z,94869.88
2023-04-03T23:57:01.301Z,94871.69
2023-04-03T23:59:45.617Z,94879.59
